sensor_id;sensor_type;location;lat;lon;timestamp;P1;durP1;ratioP1;P2;durP2;ratioP2
65996;SDS011;52765;52.258;21.052;2023-03-02T00:01:50;66.05;;;28.77;;
65996;SDS011;52765;52.258;21.052;2023-03-02T00:04:20;68.32;;;27.75;;
65996;SDS011;52765;52.258;21.052;2023-03-02T00:06:46;64.47;;;28.98;;
65996;SDS011;52765;52.258;21.052;2023-03-02T00:09:14;67.88;;;28.75;;
65996;SDS011;52765;52.258;21.052;2023-03-02T00:11:40;58.83;;;26.77;;
65996;SDS011;52765;52.258;21.052;2023-03-02T00:14:05;67.20;;;29.35;;
65996;SDS011;52765;52.258;21.052;2023-03-02T00:16:32;63.78;;;28.27;;
65996;SDS011;52765;52.258;21.052;2023-03-02T00:18:58;60.85;;;26.73;;
65996;SDS011;52765;52.258;21.052;2023-03-02T00:21:23;69.72;;;29.00;;
65996;SDS011;52765;52.258;21.052;2023-03-02T00:23:49;59.40;;;28.23;;
65996;SDS011;52765;52.258;21.052;2023-03-02T00:26:16;65.85;;;28.90;;
65996;SDS011;52765;52.258;21.052;2023-03-02T00:28:42;64.00;;;27.90;;
65996;SDS011;52765;52.258;21.052;2023-03-02T00:31:07;56.92;;;26.73;;
65996;SDS011;52765;52.258;21.052;2023-03-02T00:33:33;62.47;;;27.33;;
65996;SDS011;52765;52.258;21.052;2023-03-02T00:35:59;58.92;;;27.70;;
65996;SDS011;52765;52.258;21.052;2023-03-02T00:38:25;64.40;;;27.42;;
65996;SDS011;52765;52.258;21.052;2023-03-02T00:40:52;62.60;;;28.00;;
65996;SDS011;52765;52.258;21.052;2023-03-02T00:43:19;63.20;;;27.38;;
65996;SDS011;52765;52.258;21.052;2023-03-02T00:45:46;57.78;;;26.15;;
65996;SDS011;52765;52.258;21.052;2023-03-02T00:48:12;59.20;;;27.10;;
65996;SDS011;52765;52.258;21.052;2023-03-02T00:50:38;54.75;;;28.13;;
65996;SDS011;52765;52.258;21.052;2023-03-02T00:53:05;58.45;;;26.25;;
65996;SDS011;52765;52.258;21.052;2023-03-02T00:55:34;61.10;;;27.50;;
65996;SDS011;52765;52.258;21.052;2023-03-02T00:58:01;62.75;;;27.65;;
65996;SDS011;52765;52.258;21.052;2023-03-02T01:00:26;64.75;;;27.95;;
65996;SDS011;52765;52.258;21.052;2023-03-02T01:02:55;61.15;;;27.33;;
65996;SDS011;52765;52.258;21.052;2023-03-02T01:05:21;61.35;;;27.15;;
65996;SDS011;52765;52.258;21.052;2023-03-02T01:07:49;69.07;;;29.10;;
65996;SDS011;52765;52.258;21.052;2023-03-02T01:10:15;56.13;;;26.38;;
65996;SDS011;52765;52.258;21.052;2023-03-02T01:12:41;59.90;;;26.92;;
65996;SDS011;52765;52.258;21.052;2023-03-02T01:15:09;56.28;;;25.92;;
65996;SDS011;52765;52.258;21.052;2023-03-02T01:17:40;55.42;;;25.77;;
65996;SDS011;52765;52.258;21.052;2023-03-02T01:20:09;54.08;;;25.52;;
65996;SDS011;52765;52.258;21.052;2023-03-02T01:22:35;58.97;;;25.60;;
65996;SDS011;52765;52.258;21.052;2023-03-02T01:25:01;64.13;;;28.75;;
65996;SDS011;52765;52.258;21.052;2023-03-02T01:27:27;55.03;;;26.15;;
65996;SDS011;52765;52.258;21.052;2023-03-02T01:29:53;59.20;;;26.33;;
65996;SDS011;52765;52.258;21.052;2023-03-02T01:32:20;61.70;;;26.92;;
65996;SDS011;52765;52.258;21.052;2023-03-02T01:34:45;67.07;;;27.33;;
65996;SDS011;52765;52.258;21.052;2023-03-02T01:37:11;63.05;;;28.77;;
65996;SDS011;52765;52.258;21.052;2023-03-02T01:39:36;66.72;;;28.00;;
65996;SDS011;52765;52.258;21.052;2023-03-02T01:42:02;62.05;;;26.35;;
65996;SDS011;52765;52.258;21.052;2023-03-02T01:49:40;92.05;;;34.10;;
65996;SDS011;52765;52.258;21.052;2023-03-02T01:52:08;101.28;;;35.65;;
65996;SDS011;52765;52.258;21.052;2023-03-02T01:54:36;85.28;;;31.25;;
65996;SDS011;52765;52.258;21.052;2023-03-02T01:57:04;71.35;;;29.27;;
65996;SDS011;52765;52.258;21.052;2023-03-02T01:59:31;60.92;;;26.05;;
65996;SDS011;52765;52.258;21.052;2023-03-02T02:02:01;61.38;;;26.33;;
65996;SDS011;52765;52.258;21.052;2023-03-02T02:04:29;61.72;;;27.38;;
65996;SDS011;52765;52.258;21.052;2023-03-02T02:07:03;90.55;;;32.33;;
65996;SDS011;52765;52.258;21.052;2023-03-02T02:09:34;102.20;;;36.22;;
65996;SDS011;52765;52.258;21.052;2023-03-02T02:12:03;86.47;;;31.25;;
65996;SDS011;52765;52.258;21.052;2023-03-02T02:14:30;78.35;;;29.48;;
65996;SDS011;52765;52.258;21.052;2023-03-02T02:16:56;78.53;;;29.33;;
65996;SDS011;52765;52.258;21.052;2023-03-02T02:19:25;60.60;;;24.55;;
65996;SDS011;52765;52.258;21.052;2023-03-02T02:22:04;59.75;;;24.60;;
65996;SDS011;52765;52.258;21.052;2023-03-02T02:24:41;70.18;;;28.90;;
65996;SDS011;52765;52.258;21.052;2023-03-02T02:27:10;75.72;;;25.58;;
65996;SDS011;52765;52.258;21.052;2023-03-02T02:29:38;102.50;;;32.42;;
65996;SDS011;52765;52.258;21.052;2023-03-02T02:32:14;72.30;;;27.13;;
65996;SDS011;52765;52.258;21.052;2023-03-02T02:37:26;62.05;;;24.08;;
65996;SDS011;52765;52.258;21.052;2023-03-02T02:39:57;65.28;;;23.88;;
65996;SDS011;52765;52.258;21.052;2023-03-02T02:42:29;65.63;;;24.25;;
65996;SDS011;52765;52.258;21.052;2023-03-02T02:44:59;66.35;;;25.20;;
65996;SDS011;52765;52.258;21.052;2023-03-02T02:47:27;78.25;;;26.50;;
65996;SDS011;52765;52.258;21.052;2023-03-02T02:49:53;65.05;;;25.10;;
65996;SDS011;52765;52.258;21.052;2023-03-02T02:52:21;58.72;;;24.05;;
65996;SDS011;52765;52.258;21.052;2023-03-02T02:54:50;56.08;;;23.27;;
65996;SDS011;52765;52.258;21.052;2023-03-02T02:57:18;53.53;;;23.73;;
65996;SDS011;52765;52.258;21.052;2023-03-02T02:59:53;46.03;;;21.02;;
65996;SDS011;52765;52.258;21.052;2023-03-02T03:02:25;65.25;;;25.65;;
65996;SDS011;52765;52.258;21.052;2023-03-02T03:04:53;139.77;;;42.13;;
65996;SDS011;52765;52.258;21.052;2023-03-02T03:07:27;74.32;;;26.98;;
65996;SDS011;52765;52.258;21.052;2023-03-02T03:09:56;59.25;;;24.30;;
65996;SDS011;52765;52.258;21.052;2023-03-02T03:12:43;59.25;;;25.33;;
65996;SDS011;52765;52.258;21.052;2023-03-02T03:15:09;58.42;;;25.00;;
65996;SDS011;52765;52.258;21.052;2023-03-02T03:17:35;54.75;;;22.80;;
65996;SDS011;52765;52.258;21.052;2023-03-02T03:20:01;53.00;;;23.70;;
65996;SDS011;52765;52.258;21.052;2023-03-02T03:22:31;50.78;;;22.15;;
65996;SDS011;52765;52.258;21.052;2023-03-02T03:24:58;56.13;;;22.42;;
65996;SDS011;52765;52.258;21.052;2023-03-02T03:27:24;58.05;;;23.00;;
65996;SDS011;52765;52.258;21.052;2023-03-02T03:29:50;48.45;;;21.77;;
65996;SDS011;52765;52.258;21.052;2023-03-02T03:32:16;50.70;;;21.90;;
65996;SDS011;52765;52.258;21.052;2023-03-02T03:34:43;55.00;;;21.65;;
65996;SDS011;52765;52.258;21.052;2023-03-02T03:37:09;51.92;;;21.67;;
65996;SDS011;52765;52.258;21.052;2023-03-02T03:39:38;52.22;;;23.45;;
65996;SDS011;52765;52.258;21.052;2023-03-02T03:42:04;53.55;;;24.38;;
65996;SDS011;52765;52.258;21.052;2023-03-02T03:44:30;54.33;;;22.25;;
65996;SDS011;52765;52.258;21.052;2023-03-02T03:46:56;51.30;;;21.65;;
65996;SDS011;52765;52.258;21.052;2023-03-02T03:49:22;56.60;;;22.38;;
65996;SDS011;52765;52.258;21.052;2023-03-02T03:51:48;58.03;;;22.55;;
65996;SDS011;52765;52.258;21.052;2023-03-02T03:54:13;56.70;;;23.10;;
65996;SDS011;52765;52.258;21.052;2023-03-02T03:56:41;53.67;;;23.90;;
65996;SDS011;52765;52.258;21.052;2023-03-02T03:59:10;52.25;;;23.38;;
65996;SDS011;52765;52.258;21.052;2023-03-02T04:01:40;52.38;;;22.08;;
65996;SDS011;52765;52.258;21.052;2023-03-02T04:04:10;50.35;;;21.23;;
65996;SDS011;52765;52.258;21.052;2023-03-02T04:06:37;49.10;;;21.67;;
65996;SDS011;52765;52.258;21.052;2023-03-02T04:09:03;49.55;;;20.38;;
65996;SDS011;52765;52.258;21.052;2023-03-02T04:11:33;45.47;;;20.25;;
65996;SDS011;52765;52.258;21.052;2023-03-02T04:14:01;46.45;;;20.65;;
65996;SDS011;52765;52.258;21.052;2023-03-02T04:16:27;47.50;;;22.15;;
65996;SDS011;52765;52.258;21.052;2023-03-02T04:18:53;44.22;;;20.00;;
65996;SDS011;52765;52.258;21.052;2023-03-02T04:21:19;48.10;;;21.63;;
65996;SDS011;52765;52.258;21.052;2023-03-02T04:23:44;68.35;;;26.20;;
65996;SDS011;52765;52.258;21.052;2023-03-02T04:26:10;69.28;;;26.58;;
65996;SDS011;52765;52.258;21.052;2023-03-02T04:28:36;76.20;;;27.10;;
65996;SDS011;52765;52.258;21.052;2023-03-02T04:31:01;72.03;;;26.17;;
65996;SDS011;52765;52.258;21.052;2023-03-02T04:33:27;61.97;;;24.30;;
65996;SDS011;52765;52.258;21.052;2023-03-02T04:35:52;54.15;;;23.40;;
65996;SDS011;52765;52.258;21.052;2023-03-02T04:38:19;61.33;;;24.17;;
65996;SDS011;52765;52.258;21.052;2023-03-02T04:40:45;53.38;;;23.65;;
65996;SDS011;52765;52.258;21.052;2023-03-02T04:43:10;55.38;;;23.45;;
65996;SDS011;52765;52.258;21.052;2023-03-02T04:45:36;52.65;;;23.10;;
65996;SDS011;52765;52.258;21.052;2023-03-02T04:48:02;60.17;;;24.30;;
65996;SDS011;52765;52.258;21.052;2023-03-02T04:50:28;51.20;;;21.45;;
65996;SDS011;52765;52.258;21.052;2023-03-02T04:52:54;55.08;;;22.35;;
65996;SDS011;52765;52.258;21.052;2023-03-02T04:55:21;50.03;;;22.83;;
65996;SDS011;52765;52.258;21.052;2023-03-02T04:57:48;49.92;;;23.10;;
65996;SDS011;52765;52.258;21.052;2023-03-02T05:00:14;52.38;;;22.67;;
65996;SDS011;52765;52.258;21.052;2023-03-02T05:02:41;56.83;;;25.00;;
65996;SDS011;52765;52.258;21.052;2023-03-02T05:05:10;67.13;;;26.55;;
65996;SDS011;52765;52.258;21.052;2023-03-02T05:07:41;63.47;;;24.35;;
65996;SDS011;52765;52.258;21.052;2023-03-02T05:10:08;62.22;;;25.75;;
65996;SDS011;52765;52.258;21.052;2023-03-02T05:12:35;56.40;;;25.30;;
65996;SDS011;52765;52.258;21.052;2023-03-02T05:15:18;72.32;;;30.08;;
65996;SDS011;52765;52.258;21.052;2023-03-02T05:18:11;68.65;;;28.35;;
65996;SDS011;52765;52.258;21.052;2023-03-02T05:20:36;62.88;;;27.30;;
65996;SDS011;52765;52.258;21.052;2023-03-02T05:23:04;67.50;;;27.45;;
65996;SDS011;52765;52.258;21.052;2023-03-02T05:25:32;62.78;;;26.98;;
65996;SDS011;52765;52.258;21.052;2023-03-02T05:27:59;64.07;;;26.08;;
65996;SDS011;52765;52.258;21.052;2023-03-02T05:30:26;57.97;;;26.25;;
65996;SDS011;52765;52.258;21.052;2023-03-02T05:32:52;58.60;;;25.45;;
65996;SDS011;52765;52.258;21.052;2023-03-02T05:35:18;64.10;;;26.30;;
65996;SDS011;52765;52.258;21.052;2023-03-02T05:37:44;58.42;;;25.80;;
65996;SDS011;52765;52.258;21.052;2023-03-02T05:40:12;64.75;;;24.75;;
65996;SDS011;52765;52.258;21.052;2023-03-02T05:42:39;62.90;;;24.98;;
65996;SDS011;52765;52.258;21.052;2023-03-02T05:45:07;62.15;;;26.25;;
65996;SDS011;52765;52.258;21.052;2023-03-02T05:47:35;67.60;;;26.65;;
65996;SDS011;52765;52.258;21.052;2023-03-02T05:50:01;59.90;;;24.75;;
65996;SDS011;52765;52.258;21.052;2023-03-02T05:52:26;57.03;;;25.58;;
65996;SDS011;52765;52.258;21.052;2023-03-02T05:54:51;58.88;;;25.67;;
65996;SDS011;52765;52.258;21.052;2023-03-02T05:57:17;62.85;;;24.35;;
65996;SDS011;52765;52.258;21.052;2023-03-02T05:59:42;47.95;;;21.30;;
65996;SDS011;52765;52.258;21.052;2023-03-02T06:02:10;49.08;;;22.02;;
65996;SDS011;52765;52.258;21.052;2023-03-02T06:04:36;52.58;;;21.15;;
65996;SDS011;52765;52.258;21.052;2023-03-02T06:07:10;47.22;;;20.80;;
65996;SDS011;52765;52.258;21.052;2023-03-02T06:09:36;54.40;;;22.58;;
65996;SDS011;52765;52.258;21.052;2023-03-02T06:12:03;49.50;;;21.90;;
65996;SDS011;52765;52.258;21.052;2023-03-02T06:14:29;49.72;;;21.05;;
65996;SDS011;52765;52.258;21.052;2023-03-02T06:16:55;53.55;;;22.52;;
65996;SDS011;52765;52.258;21.052;2023-03-02T06:19:20;54.45;;;22.35;;
65996;SDS011;52765;52.258;21.052;2023-03-02T06:21:46;52.97;;;22.38;;
65996;SDS011;52765;52.258;21.052;2023-03-02T06:24:11;57.20;;;23.65;;
65996;SDS011;52765;52.258;21.052;2023-03-02T06:26:37;56.25;;;22.63;;
65996;SDS011;52765;52.258;21.052;2023-03-02T06:29:02;56.08;;;22.48;;
65996;SDS011;52765;52.258;21.052;2023-03-02T06:31:29;54.13;;;23.20;;
65996;SDS011;52765;52.258;21.052;2023-03-02T06:33:56;56.92;;;23.15;;
65996;SDS011;52765;52.258;21.052;2023-03-02T06:36:21;57.80;;;23.52;;
65996;SDS011;52765;52.258;21.052;2023-03-02T06:38:47;51.35;;;23.25;;
65996;SDS011;52765;52.258;21.052;2023-03-02T06:41:12;53.25;;;21.33;;
65996;SDS011;52765;52.258;21.052;2023-03-02T06:43:38;53.75;;;22.95;;
65996;SDS011;52765;52.258;21.052;2023-03-02T06:46:05;52.90;;;22.40;;
65996;SDS011;52765;52.258;21.052;2023-03-02T06:48:30;48.08;;;20.00;;
65996;SDS011;52765;52.258;21.052;2023-03-02T06:50:56;58.65;;;24.70;;
65996;SDS011;52765;52.258;21.052;2023-03-02T06:53:22;47.08;;;21.90;;
65996;SDS011;52765;52.258;21.052;2023-03-02T06:55:47;47.28;;;20.80;;
65996;SDS011;52765;52.258;21.052;2023-03-02T06:58:14;50.55;;;22.35;;
65996;SDS011;52765;52.258;21.052;2023-03-02T07:00:39;58.47;;;22.33;;
65996;SDS011;52765;52.258;21.052;2023-03-02T07:03:05;49.80;;;21.52;;
65996;SDS011;52765;52.258;21.052;2023-03-02T07:05:30;50.58;;;20.88;;
65996;SDS011;52765;52.258;21.052;2023-03-02T07:07:57;50.53;;;20.95;;
65996;SDS011;52765;52.258;21.052;2023-03-02T07:10:23;51.03;;;22.10;;
65996;SDS011;52765;52.258;21.052;2023-03-02T07:12:48;48.78;;;21.30;;
65996;SDS011;52765;52.258;21.052;2023-03-02T07:15:14;56.40;;;21.83;;
65996;SDS011;52765;52.258;21.052;2023-03-02T07:17:41;58.72;;;22.50;;
65996;SDS011;52765;52.258;21.052;2023-03-02T07:20:08;48.33;;;21.20;;
65996;SDS011;52765;52.258;21.052;2023-03-02T07:22:35;49.50;;;22.52;;
65996;SDS011;52765;52.258;21.052;2023-03-02T07:25:00;58.03;;;23.17;;
65996;SDS011;52765;52.258;21.052;2023-03-02T07:27:26;50.13;;;22.23;;
65996;SDS011;52765;52.258;21.052;2023-03-02T07:29:51;54.25;;;23.80;;
65996;SDS011;52765;52.258;21.052;2023-03-02T07:32:17;56.42;;;23.42;;
65996;SDS011;52765;52.258;21.052;2023-03-02T07:34:42;56.83;;;24.17;;
65996;SDS011;52765;52.258;21.052;2023-03-02T07:37:08;63.00;;;26.45;;
65996;SDS011;52765;52.258;21.052;2023-03-02T07:39:33;58.53;;;24.15;;
65996;SDS011;52765;52.258;21.052;2023-03-02T07:41:59;63.53;;;25.52;;
65996;SDS011;52765;52.258;21.052;2023-03-02T07:44:26;58.53;;;23.35;;
65996;SDS011;52765;52.258;21.052;2023-03-02T07:46:52;59.75;;;25.65;;
65996;SDS011;52765;52.258;21.052;2023-03-02T07:49:18;62.33;;;24.25;;
65996;SDS011;52765;52.258;21.052;2023-03-02T07:51:43;62.58;;;24.77;;
65996;SDS011;52765;52.258;21.052;2023-03-02T07:54:09;60.22;;;25.52;;
65996;SDS011;52765;52.258;21.052;2023-03-02T07:56:34;56.97;;;24.10;;
65996;SDS011;52765;52.258;21.052;2023-03-02T07:59:00;62.65;;;25.67;;
65996;SDS011;52765;52.258;21.052;2023-03-02T08:01:25;56.72;;;24.95;;
65996;SDS011;52765;52.258;21.052;2023-03-02T08:03:54;65.65;;;26.08;;
65996;SDS011;52765;52.258;21.052;2023-03-02T08:06:19;59.72;;;25.40;;
65996;SDS011;52765;52.258;21.052;2023-03-02T08:08:45;54.85;;;24.70;;
65996;SDS011;52765;52.258;21.052;2023-03-02T08:11:12;61.58;;;24.38;;
65996;SDS011;52765;52.258;21.052;2023-03-02T08:13:44;57.20;;;24.52;;
65996;SDS011;52765;52.258;21.052;2023-03-02T08:16:11;63.88;;;24.88;;
65996;SDS011;52765;52.258;21.052;2023-03-02T08:18:38;61.22;;;25.67;;
65996;SDS011;52765;52.258;21.052;2023-03-02T08:21:12;58.53;;;23.67;;
65996;SDS011;52765;52.258;21.052;2023-03-02T08:23:40;54.97;;;23.30;;
65996;SDS011;52765;52.258;21.052;2023-03-02T08:26:06;60.92;;;23.58;;
65996;SDS011;52765;52.258;21.052;2023-03-02T08:28:32;66.43;;;26.25;;
65996;SDS011;52765;52.258;21.052;2023-03-02T08:30:58;57.22;;;24.23;;
65996;SDS011;52765;52.258;21.052;2023-03-02T08:33:25;65.93;;;24.73;;
65996;SDS011;52765;52.258;21.052;2023-03-02T08:38:28;53.47;;;23.75;;
65996;SDS011;52765;52.258;21.052;2023-03-02T08:40:54;52.80;;;22.92;;
65996;SDS011;52765;52.258;21.052;2023-03-02T08:43:20;62.10;;;27.00;;
65996;SDS011;52765;52.258;21.052;2023-03-02T08:45:51;62.35;;;25.23;;
65996;SDS011;52765;52.258;21.052;2023-03-02T08:48:18;50.72;;;22.30;;
65996;SDS011;52765;52.258;21.052;2023-03-02T08:50:52;46.00;;;19.48;;
65996;SDS011;52765;52.258;21.052;2023-03-02T08:53:28;46.05;;;19.02;;
65996;SDS011;52765;52.258;21.052;2023-03-02T08:55:55;44.25;;;19.15;;
65996;SDS011;52765;52.258;21.052;2023-03-02T08:58:21;38.10;;;16.92;;
65996;SDS011;52765;52.258;21.052;2023-03-02T09:00:49;47.22;;;21.02;;
65996;SDS011;52765;52.258;21.052;2023-03-02T09:03:15;47.42;;;20.20;;
65996;SDS011;52765;52.258;21.052;2023-03-02T09:05:41;55.58;;;22.17;;
65996;SDS011;52765;52.258;21.052;2023-03-02T09:08:07;51.60;;;21.98;;
65996;SDS011;52765;52.258;21.052;2023-03-02T09:10:33;46.67;;;19.80;;
65996;SDS011;52765;52.258;21.052;2023-03-02T09:12:59;48.70;;;20.55;;
65996;SDS011;52765;52.258;21.052;2023-03-02T09:15:24;42.05;;;19.08;;
65996;SDS011;52765;52.258;21.052;2023-03-02T09:17:50;43.30;;;17.73;;
65996;SDS011;52765;52.258;21.052;2023-03-02T09:20:15;45.08;;;19.75;;
65996;SDS011;52765;52.258;21.052;2023-03-02T09:22:40;41.92;;;17.42;;
65996;SDS011;52765;52.258;21.052;2023-03-02T09:25:12;44.08;;;18.77;;
65996;SDS011;52765;52.258;21.052;2023-03-02T09:27:39;38.05;;;17.25;;
65996;SDS011;52765;52.258;21.052;2023-03-02T09:30:05;34.25;;;15.00;;
65996;SDS011;52765;52.258;21.052;2023-03-02T09:32:32;37.92;;;15.52;;
65996;SDS011;52765;52.258;21.052;2023-03-02T09:34:57;33.85;;;14.90;;
65996;SDS011;52765;52.258;21.052;2023-03-02T09:37:23;33.80;;;12.73;;
65996;SDS011;52765;52.258;21.052;2023-03-02T09:39:48;21.70;;;9.93;;
65996;SDS011;52765;52.258;21.052;2023-03-02T09:42:19;22.40;;;8.60;;
65996;SDS011;52765;52.258;21.052;2023-03-02T09:45:23;18.50;;;8.85;;
65996;SDS011;52765;52.258;21.052;2023-03-02T09:48:12;17.45;;;7.30;;
65996;SDS011;52765;52.258;21.052;2023-03-02T09:51:11;16.48;;;7.97;;
65996;SDS011;52765;52.258;21.052;2023-03-02T09:53:45;17.85;;;8.88;;
65996;SDS011;52765;52.258;21.052;2023-03-02T09:56:16;21.63;;;10.30;;
65996;SDS011;52765;52.258;21.052;2023-03-02T09:58:51;20.67;;;10.05;;
65996;SDS011;52765;52.258;21.052;2023-03-02T10:01:36;25.92;;;11.50;;
65996;SDS011;52765;52.258;21.052;2023-03-02T10:04:26;26.42;;;12.85;;
65996;SDS011;52765;52.258;21.052;2023-03-02T10:06:54;31.52;;;14.27;;
65996;SDS011;52765;52.258;21.052;2023-03-02T10:09:21;35.88;;;16.17;;
65996;SDS011;52765;52.258;21.052;2023-03-02T10:14:26;35.78;;;15.82;;
65996;SDS011;52765;52.258;21.052;2023-03-02T10:19:45;27.98;;;12.77;;
65996;SDS011;52765;52.258;21.052;2023-03-02T10:22:24;26.73;;;12.65;;
65996;SDS011;52765;52.258;21.052;2023-03-02T10:27:38;23.85;;;11.18;;
65996;SDS011;52765;52.258;21.052;2023-03-02T10:30:15;19.60;;;10.18;;
65996;SDS011;52765;52.258;21.052;2023-03-02T10:32:50;18.25;;;9.85;;
65996;SDS011;52765;52.258;21.052;2023-03-02T10:35:19;21.77;;;10.10;;
65996;SDS011;52765;52.258;21.052;2023-03-02T10:37:47;17.45;;;8.38;;
65996;SDS011;52765;52.258;21.052;2023-03-02T10:43:13;12.27;;;6.05;;
65996;SDS011;52765;52.258;21.052;2023-03-02T10:45:42;14.73;;;7.00;;
65996;SDS011;52765;52.258;21.052;2023-03-02T10:48:08;13.13;;;6.38;;
65996;SDS011;52765;52.258;21.052;2023-03-02T10:50:35;17.33;;;6.93;;
65996;SDS011;52765;52.258;21.052;2023-03-02T10:53:05;16.48;;;7.40;;
65996;SDS011;52765;52.258;21.052;2023-03-02T10:55:33;16.23;;;6.80;;
65996;SDS011;52765;52.258;21.052;2023-03-02T11:00:29;14.40;;;6.90;;
65996;SDS011;52765;52.258;21.052;2023-03-02T11:08:04;15.10;;;7.40;;
65996;SDS011;52765;52.258;21.052;2023-03-02T11:10:34;11.50;;;6.07;;
65996;SDS011;52765;52.258;21.052;2023-03-02T11:13:04;15.07;;;7.13;;
65996;SDS011;52765;52.258;21.052;2023-03-02T11:15:44;18.88;;;7.65;;
65996;SDS011;52765;52.258;21.052;2023-03-02T11:20:42;14.75;;;7.40;;
65996;SDS011;52765;52.258;21.052;2023-03-02T11:23:25;14.27;;;7.60;;
65996;SDS011;52765;52.258;21.052;2023-03-02T11:26:15;12.45;;;6.80;;
65996;SDS011;52765;52.258;21.052;2023-03-02T11:31:29;17.35;;;8.25;;
65996;SDS011;52765;52.258;21.052;2023-03-02T11:34:21;17.67;;;8.80;;
65996;SDS011;52765;52.258;21.052;2023-03-02T11:42:35;19.65;;;8.73;;
65996;SDS011;52765;52.258;21.052;2023-03-02T11:45:13;17.15;;;7.90;;
65996;SDS011;52765;52.258;21.052;2023-03-02T11:47:49;20.27;;;8.88;;
65996;SDS011;52765;52.258;21.052;2023-03-02T11:50:26;17.80;;;8.48;;
65996;SDS011;52765;52.258;21.052;2023-03-02T11:52:59;19.73;;;8.88;;
65996;SDS011;52765;52.258;21.052;2023-03-02T11:55:31;16.63;;;8.10;;
65996;SDS011;52765;52.258;21.052;2023-03-02T11:58:00;19.05;;;9.27;;
65996;SDS011;52765;52.258;21.052;2023-03-02T12:00:35;16.30;;;8.70;;
65996;SDS011;52765;52.258;21.052;2023-03-02T12:03:06;19.13;;;9.32;;
65996;SDS011;52765;52.258;21.052;2023-03-02T12:05:46;23.77;;;9.02;;
65996;SDS011;52765;52.258;21.052;2023-03-02T12:16:18;18.52;;;8.85;;
65996;SDS011;52765;52.258;21.052;2023-03-02T12:18:46;18.02;;;7.90;;
65996;SDS011;52765;52.258;21.052;2023-03-02T12:23:52;18.20;;;7.97;;
65996;SDS011;52765;52.258;21.052;2023-03-02T12:29:20;16.20;;;7.93;;
65996;SDS011;52765;52.258;21.052;2023-03-02T12:31:50;16.98;;;7.57;;
65996;SDS011;52765;52.258;21.052;2023-03-02T12:48:03;18.77;;;8.88;;
65996;SDS011;52765;52.258;21.052;2023-03-02T12:50:39;17.40;;;8.65;;
65996;SDS011;52765;52.258;21.052;2023-03-02T12:53:12;17.63;;;8.98;;
65996;SDS011;52765;52.258;21.052;2023-03-02T12:55:40;17.27;;;8.32;;
65996;SDS011;52765;52.258;21.052;2023-03-02T12:58:13;15.02;;;8.43;;
65996;SDS011;52765;52.258;21.052;2023-03-02T13:01:00;20.83;;;9.25;;
65996;SDS011;52765;52.258;21.052;2023-03-02T13:03:30;16.08;;;8.32;;
65996;SDS011;52765;52.258;21.052;2023-03-02T13:06:04;23.23;;;10.07;;
65996;SDS011;52765;52.258;21.052;2023-03-02T13:08:38;19.10;;;8.50;;
65996;SDS011;52765;52.258;21.052;2023-03-02T13:11:04;18.10;;;9.57;;
65996;SDS011;52765;52.258;21.052;2023-03-02T13:16:22;19.40;;;8.70;;
65996;SDS011;52765;52.258;21.052;2023-03-02T13:18:52;23.52;;;9.57;;
65996;SDS011;52765;52.258;21.052;2023-03-02T13:21:29;19.38;;;9.48;;
65996;SDS011;52765;52.258;21.052;2023-03-02T13:23:59;23.70;;;9.45;;
65996;SDS011;52765;52.258;21.052;2023-03-02T13:26:32;22.40;;;8.98;;
65996;SDS011;52765;52.258;21.052;2023-03-02T13:29:00;15.63;;;8.13;;
65996;SDS011;52765;52.258;21.052;2023-03-02T13:31:29;15.57;;;8.02;;
65996;SDS011;52765;52.258;21.052;2023-03-02T13:33:56;21.05;;;9.88;;
65996;SDS011;52765;52.258;21.052;2023-03-02T13:36:29;14.32;;;7.38;;
65996;SDS011;52765;52.258;21.052;2023-03-02T13:38:59;18.67;;;8.07;;
65996;SDS011;52765;52.258;21.052;2023-03-02T13:41:28;16.33;;;8.00;;
65996;SDS011;52765;52.258;21.052;2023-03-02T13:43:56;16.65;;;8.25;;
65996;SDS011;52765;52.258;21.052;2023-03-02T13:46:34;21.92;;;9.18;;
65996;SDS011;52765;52.258;21.052;2023-03-02T13:49:01;18.35;;;8.52;;
65996;SDS011;52765;52.258;21.052;2023-03-02T13:51:34;18.20;;;9.07;;
65996;SDS011;52765;52.258;21.052;2023-03-02T13:54:02;20.88;;;9.68;;
65996;SDS011;52765;52.258;21.052;2023-03-02T13:56:31;23.55;;;9.57;;
65996;SDS011;52765;52.258;21.052;2023-03-02T13:59:02;19.90;;;10.15;;
65996;SDS011;52765;52.258;21.052;2023-03-02T14:01:33;20.25;;;9.85;;
65996;SDS011;52765;52.258;21.052;2023-03-02T14:03:59;24.00;;;10.40;;
65996;SDS011;52765;52.258;21.052;2023-03-02T14:06:25;25.23;;;11.45;;
65996;SDS011;52765;52.258;21.052;2023-03-02T14:08:50;18.48;;;9.10;;
65996;SDS011;52765;52.258;21.052;2023-03-02T14:11:16;17.85;;;9.07;;
65996;SDS011;52765;52.258;21.052;2023-03-02T14:13:44;19.27;;;9.48;;
65996;SDS011;52765;52.258;21.052;2023-03-02T14:16:15;19.73;;;9.73;;
65996;SDS011;52765;52.258;21.052;2023-03-02T14:18:41;23.65;;;9.57;;
65996;SDS011;52765;52.258;21.052;2023-03-02T14:21:17;21.25;;;9.60;;
65996;SDS011;52765;52.258;21.052;2023-03-02T14:23:45;20.95;;;8.82;;
65996;SDS011;52765;52.258;21.052;2023-03-02T14:26:19;18.42;;;8.52;;
65996;SDS011;52765;52.258;21.052;2023-03-02T14:29:24;17.25;;;8.15;;
65996;SDS011;52765;52.258;21.052;2023-03-02T14:31:55;17.50;;;8.85;;
65996;SDS011;52765;52.258;21.052;2023-03-02T14:34:24;17.55;;;8.48;;
65996;SDS011;52765;52.258;21.052;2023-03-02T14:36:52;22.75;;;9.10;;
65996;SDS011;52765;52.258;21.052;2023-03-02T14:42:01;15.73;;;8.35;;
65996;SDS011;52765;52.258;21.052;2023-03-02T14:44:27;22.83;;;9.00;;
65996;SDS011;52765;52.258;21.052;2023-03-02T14:46:53;16.33;;;8.25;;
65996;SDS011;52765;52.258;21.052;2023-03-02T14:49:20;22.08;;;10.27;;
65996;SDS011;52765;52.258;21.052;2023-03-02T14:51:49;23.40;;;10.60;;
65996;SDS011;52765;52.258;21.052;2023-03-02T14:54:28;20.27;;;9.57;;
65996;SDS011;52765;52.258;21.052;2023-03-02T14:57:28;19.10;;;10.27;;
65996;SDS011;52765;52.258;21.052;2023-03-02T14:59:57;24.65;;;9.60;;
65996;SDS011;52765;52.258;21.052;2023-03-02T15:02:24;18.50;;;9.25;;
65996;SDS011;52765;52.258;21.052;2023-03-02T15:04:49;21.98;;;9.55;;
65996;SDS011;52765;52.258;21.052;2023-03-02T15:07:18;28.05;;;10.68;;
65996;SDS011;52765;52.258;21.052;2023-03-02T15:09:46;20.20;;;9.45;;
65996;SDS011;52765;52.258;21.052;2023-03-02T15:12:12;24.05;;;10.75;;
65996;SDS011;52765;52.258;21.052;2023-03-02T15:14:41;21.02;;;9.82;;
65996;SDS011;52765;52.258;21.052;2023-03-02T15:17:06;18.50;;;8.85;;
65996;SDS011;52765;52.258;21.052;2023-03-02T15:19:35;20.55;;;9.30;;
65996;SDS011;52765;52.258;21.052;2023-03-02T15:22:00;16.58;;;9.02;;
65996;SDS011;52765;52.258;21.052;2023-03-02T15:24:26;16.70;;;9.38;;
65996;SDS011;52765;52.258;21.052;2023-03-02T15:26:52;17.83;;;9.27;;
65996;SDS011;52765;52.258;21.052;2023-03-02T15:29:18;22.88;;;9.10;;
65996;SDS011;52765;52.258;21.052;2023-03-02T15:31:44;20.25;;;9.82;;
65996;SDS011;52765;52.258;21.052;2023-03-02T15:34:10;21.42;;;9.05;;